sensor_id;sensor_type;location;lat;lon;timestamp;P1;durP1;ratioP1;P2;durP2;ratioP2
26906;SDS011;14472;56.880;16.658;2023-05-19T00:02:06;5.47;;;1.60;;
26906;SDS011;14472;56.880;16.658;2023-05-19T00:04:36;5.37;;;1.80;;
26906;SDS011;14472;56.880;16.658;2023-05-19T00:07:05;4.53;;;1.57;;
26906;SDS011;14472;56.880;16.658;2023-05-19T00:09:35;4.80;;;1.90;;
26906;SDS011;14472;56.880;16.658;2023-05-19T00:12:01;6.07;;;1.70;;
26906;SDS011;14472;56.880;16.658;2023-05-19T00:14:27;5.93;;;1.50;;
26906;SDS011;14472;56.880;16.658;2023-05-19T00:16:53;5.10;;;1.80;;
26906;SDS011;14472;56.880;16.658;2023-05-19T00:19:24;6.77;;;1.83;;
26906;SDS011;14472;56.880;16.658;2023-05-19T00:21:50;5.23;;;1.70;;
26906;SDS011;14472;56.880;16.658;2023-05-19T00:24:15;4.77;;;1.97;;
26906;SDS011;14472;56.880;16.658;2023-05-19T00:26:41;4.83;;;1.47;;
26906;SDS011;14472;56.880;16.658;2023-05-19T00:29:07;6.87;;;1.83;;
26906;SDS011;14472;56.880;16.658;2023-05-19T00:31:32;4.73;;;1.50;;
26906;SDS011;14472;56.880;16.658;2023-05-19T00:33:58;4.60;;;1.97;;
26906;SDS011;14472;56.880;16.658;2023-05-19T00:36:24;7.70;;;1.90;;
26906;SDS011;14472;56.880;16.658;2023-05-19T00:38:50;5.90;;;1.60;;
26906;SDS011;14472;56.880;16.658;2023-05-19T00:41:16;8.67;;;2.00;;
26906;SDS011;14472;56.880;16.658;2023-05-19T00:43:42;5.33;;;1.80;;
26906;SDS011;14472;56.880;16.658;2023-05-19T00:46:08;4.57;;;1.83;;
26906;SDS011;14472;56.880;16.658;2023-05-19T00:48:34;4.03;;;1.80;;
26906;SDS011;14472;56.880;16.658;2023-05-19T00:51:00;5.50;;;1.77;;
26906;SDS011;14472;56.880;16.658;2023-05-19T00:53:30;6.13;;;2.13;;
26906;SDS011;14472;56.880;16.658;2023-05-19T00:55:58;5.10;;;1.70;;
26906;SDS011;14472;56.880;16.658;2023-05-19T00:58:25;5.67;;;1.70;;
26906;SDS011;14472;56.880;16.658;2023-05-19T01:00:55;4.50;;;1.50;;
26906;SDS011;14472;56.880;16.658;2023-05-19T01:03:27;7.13;;;1.80;;
26906;SDS011;14472;56.880;16.658;2023-05-19T01:05:55;5.50;;;1.87;;
26906;SDS011;14472;56.880;16.658;2023-05-19T01:08:21;6.70;;;2.20;;
26906;SDS011;14472;56.880;16.658;2023-05-19T01:10:47;5.07;;;1.70;;
26906;SDS011;14472;56.880;16.658;2023-05-19T01:13:13;8.37;;;2.27;;
26906;SDS011;14472;56.880;16.658;2023-05-19T01:15:44;6.10;;;1.87;;
26906;SDS011;14472;56.880;16.658;2023-05-19T01:18:26;5.73;;;1.90;;
26906;SDS011;14472;56.880;16.658;2023-05-19T01:31:54;5.27;;;1.80;;
26906;SDS011;14472;56.880;16.658;2023-05-19T01:34:23;4.80;;;1.60;;
26906;SDS011;14472;56.880;16.658;2023-05-19T01:36:53;6.40;;;1.90;;
26906;SDS011;14472;56.880;16.658;2023-05-19T01:39:20;3.93;;;1.70;;
26906;SDS011;14472;56.880;16.658;2023-05-19T01:41:47;4.73;;;1.83;;
26906;SDS011;14472;56.880;16.658;2023-05-19T01:44:13;7.33;;;2.57;;
26906;SDS011;14472;56.880;16.658;2023-05-19T01:46:40;6.67;;;2.23;;
26906;SDS011;14472;56.880;16.658;2023-05-19T01:49:06;4.83;;;2.40;;
26906;SDS011;14472;56.880;16.658;2023-05-19T01:51:32;6.30;;;2.33;;
26906;SDS011;14472;56.880;16.658;2023-05-19T01:53:58;5.90;;;2.17;;
26906;SDS011;14472;56.880;16.658;2023-05-19T01:59:24;6.37;;;2.20;;
26906;SDS011;14472;56.880;16.658;2023-05-19T02:01:58;8.67;;;2.50;;
26906;SDS011;14472;56.880;16.658;2023-05-19T02:04:37;7.60;;;2.30;;
26906;SDS011;14472;56.880;16.658;2023-05-19T02:10:26;8.63;;;2.87;;
26906;SDS011;14472;56.880;16.658;2023-05-19T02:12:57;7.83;;;2.30;;
26906;SDS011;14472;56.880;16.658;2023-05-19T02:15:29;4.57;;;2.50;;
26906;SDS011;14472;56.880;16.658;2023-05-19T02:18:04;10.53;;;2.83;;
26906;SDS011;14472;56.880;16.658;2023-05-19T02:20:33;8.80;;;2.90;;
26906;SDS011;14472;56.880;16.658;2023-05-19T02:22:59;8.50;;;2.63;;
26906;SDS011;14472;56.880;16.658;2023-05-19T02:25:24;7.13;;;3.10;;
26906;SDS011;14472;56.880;16.658;2023-05-19T02:27:51;7.47;;;2.80;;
26906;SDS011;14472;56.880;16.658;2023-05-19T02:30:17;6.57;;;3.13;;
26906;SDS011;14472;56.880;16.658;2023-05-19T02:32:42;8.40;;;3.27;;
26906;SDS011;14472;56.880;16.658;2023-05-19T02:35:10;6.53;;;3.20;;
26906;SDS011;14472;56.880;16.658;2023-05-19T02:37:39;6.87;;;2.90;;
26906;SDS011;14472;56.880;16.658;2023-05-19T02:40:05;6.77;;;3.00;;
26906;SDS011;14472;56.880;16.658;2023-05-19T02:42:32;6.67;;;3.40;;
26906;SDS011;14472;56.880;16.658;2023-05-19T02:44:58;11.30;;;3.27;;
26906;SDS011;14472;56.880;16.658;2023-05-19T02:47:24;10.10;;;3.47;;
26906;SDS011;14472;56.880;16.658;2023-05-19T02:49:50;7.97;;;3.43;;
26906;SDS011;14472;56.880;16.658;2023-05-19T02:52:16;7.53;;;3.40;;
26906;SDS011;14472;56.880;16.658;2023-05-19T02:54:42;8.27;;;3.33;;
26906;SDS011;14472;56.880;16.658;2023-05-19T02:57:07;5.43;;;3.00;;
26906;SDS011;14472;56.880;16.658;2023-05-19T02:59:33;5.10;;;2.93;;
26906;SDS011;14472;56.880;16.658;2023-05-19T03:02:00;7.27;;;3.07;;
26906;SDS011;14472;56.880;16.658;2023-05-19T03:04:26;10.87;;;3.23;;
26906;SDS011;14472;56.880;16.658;2023-05-19T03:06:53;6.80;;;3.33;;
26906;SDS011;14472;56.880;16.658;2023-05-19T03:09:19;7.67;;;3.30;;
26906;SDS011;14472;56.880;16.658;2023-05-19T03:11:45;8.40;;;3.47;;
26906;SDS011;14472;56.880;16.658;2023-05-19T03:14:11;11.60;;;4.27;;
26906;SDS011;14472;56.880;16.658;2023-05-19T03:16:38;8.47;;;3.60;;
26906;SDS011;14472;56.880;16.658;2023-05-19T03:19:07;9.07;;;4.17;;
26906;SDS011;14472;56.880;16.658;2023-05-19T03:21:33;9.30;;;3.97;;
26906;SDS011;14472;56.880;16.658;2023-05-19T03:24:02;10.80;;;4.00;;
26906;SDS011;14472;56.880;16.658;2023-05-19T03:26:28;7.43;;;3.80;;
26906;SDS011;14472;56.880;16.658;2023-05-19T03:28:54;8.73;;;3.47;;
26906;SDS011;14472;56.880;16.658;2023-05-19T03:31:20;8.87;;;3.43;;
26906;SDS011;14472;56.880;16.658;2023-05-19T03:33:46;8.73;;;3.73;;
26906;SDS011;14472;56.880;16.658;2023-05-19T03:36:11;9.73;;;3.47;;
26906;SDS011;14472;56.880;16.658;2023-05-19T03:38:37;11.03;;;3.70;;
26906;SDS011;14472;56.880;16.658;2023-05-19T03:41:03;7.67;;;3.80;;
26906;SDS011;14472;56.880;16.658;2023-05-19T03:43:29;8.83;;;3.40;;
26906;SDS011;14472;56.880;16.658;2023-05-19T03:45:55;8.73;;;3.63;;
26906;SDS011;14472;56.880;16.658;2023-05-19T03:48:20;8.87;;;3.47;;
26906;SDS011;14472;56.880;16.658;2023-05-19T03:50:46;8.57;;;3.70;;
26906;SDS011;14472;56.880;16.658;2023-05-19T03:53:12;7.33;;;3.77;;
26906;SDS011;14472;56.880;16.658;2023-05-19T03:55:38;12.70;;;3.70;;
26906;SDS011;14472;56.880;16.658;2023-05-19T03:58:04;7.37;;;3.70;;
26906;SDS011;14472;56.880;16.658;2023-05-19T04:00:30;8.27;;;3.33;;
26906;SDS011;14472;56.880;16.658;2023-05-19T04:02:56;10.63;;;3.93;;
26906;SDS011;14472;56.880;16.658;2023-05-19T04:05:21;9.53;;;3.57;;
26906;SDS011;14472;56.880;16.658;2023-05-19T04:07:47;8.73;;;3.90;;
26906;SDS011;14472;56.880;16.658;2023-05-19T04:10:13;8.70;;;3.50;;
26906;SDS011;14472;56.880;16.658;2023-05-19T04:12:39;8.13;;;3.67;;
26906;SDS011;14472;56.880;16.658;2023-05-19T04:15:05;8.90;;;3.27;;
26906;SDS011;14472;56.880;16.658;2023-05-19T04:17:31;9.17;;;3.77;;
26906;SDS011;14472;56.880;16.658;2023-05-19T04:19:57;8.83;;;3.83;;
26906;SDS011;14472;56.880;16.658;2023-05-19T04:22:22;11.40;;;3.97;;
26906;SDS011;14472;56.880;16.658;2023-05-19T04:24:48;14.57;;;3.90;;
26906;SDS011;14472;56.880;16.658;2023-05-19T04:27:15;8.80;;;3.63;;
26906;SDS011;14472;56.880;16.658;2023-05-19T04:29:41;11.83;;;3.90;;
26906;SDS011;14472;56.880;16.658;2023-05-19T04:32:08;9.60;;;3.93;;
26906;SDS011;14472;56.880;16.658;2023-05-19T04:34:34;12.20;;;3.47;;
26906;SDS011;14472;56.880;16.658;2023-05-19T04:37:04;10.77;;;3.47;;
26906;SDS011;14472;56.880;16.658;2023-05-19T04:39:34;10.23;;;3.77;;
26906;SDS011;14472;56.880;16.658;2023-05-19T04:42:03;9.20;;;3.60;;
26906;SDS011;14472;56.880;16.658;2023-05-19T04:44:28;8.77;;;3.47;;
26906;SDS011;14472;56.880;16.658;2023-05-19T04:46:55;10.87;;;3.60;;
26906;SDS011;14472;56.880;16.658;2023-05-19T04:49:22;11.10;;;4.47;;
26906;SDS011;14472;56.880;16.658;2023-05-19T04:51:52;12.07;;;3.60;;
26906;SDS011;14472;56.880;16.658;2023-05-19T04:54:18;13.00;;;3.77;;
26906;SDS011;14472;56.880;16.658;2023-05-19T04:56:44;9.97;;;4.07;;
26906;SDS011;14472;56.880;16.658;2023-05-19T04:59:09;10.20;;;3.80;;
26906;SDS011;14472;56.880;16.658;2023-05-19T05:01:35;9.97;;;3.90;;
26906;SDS011;14472;56.880;16.658;2023-05-19T05:04:04;13.40;;;3.83;;
26906;SDS011;14472;56.880;16.658;2023-05-19T05:06:31;12.80;;;3.60;;
26906;SDS011;14472;56.880;16.658;2023-05-19T05:08:57;13.67;;;4.13;;
26906;SDS011;14472;56.880;16.658;2023-05-19T05:11:24;8.70;;;3.47;;
26906;SDS011;14472;56.880;16.658;2023-05-19T05:13:50;11.90;;;3.60;;
26906;SDS011;14472;56.880;16.658;2023-05-19T05:16:16;12.20;;;4.00;;
26906;SDS011;14472;56.880;16.658;2023-05-19T05:18:42;10.07;;;3.70;;
26906;SDS011;14472;56.880;16.658;2023-05-19T05:21:10;14.67;;;3.80;;
26906;SDS011;14472;56.880;16.658;2023-05-19T05:23:36;13.07;;;3.40;;
26906;SDS011;14472;56.880;16.658;2023-05-19T05:26:04;9.10;;;2.90;;
26906;SDS011;14472;56.880;16.658;2023-05-19T05:28:47;10.30;;;2.73;;
26906;SDS011;14472;56.880;16.658;2023-05-19T05:31:13;11.23;;;2.70;;
26906;SDS011;14472;56.880;16.658;2023-05-19T05:33:40;10.87;;;3.00;;
26906;SDS011;14472;56.880;16.658;2023-05-19T05:36:05;10.90;;;2.97;;
26906;SDS011;14472;56.880;16.658;2023-05-19T05:38:32;10.23;;;3.03;;
26906;SDS011;14472;56.880;16.658;2023-05-19T05:40:57;9.70;;;3.27;;
26906;SDS011;14472;56.880;16.658;2023-05-19T05:43:23;8.73;;;2.73;;
26906;SDS011;14472;56.880;16.658;2023-05-19T05:45:50;8.10;;;2.53;;
26906;SDS011;14472;56.880;16.658;2023-05-19T05:48:15;11.67;;;3.20;;
26906;SDS011;14472;56.880;16.658;2023-05-19T05:50:42;8.60;;;2.83;;
26906;SDS011;14472;56.880;16.658;2023-05-19T05:53:08;8.67;;;3.07;;
26906;SDS011;14472;56.880;16.658;2023-05-19T05:55:41;9.03;;;3.17;;
26906;SDS011;14472;56.880;16.658;2023-05-19T05:58:07;10.37;;;2.70;;
26906;SDS011;14472;56.880;16.658;2023-05-19T06:00:35;9.80;;;3.20;;
26906;SDS011;14472;56.880;16.658;2023-05-19T06:03:01;7.40;;;2.60;;
26906;SDS011;14472;56.880;16.658;2023-05-19T06:05:28;6.80;;;2.50;;
26906;SDS011;14472;56.880;16.658;2023-05-19T06:07:54;11.37;;;2.77;;
26906;SDS011;14472;56.880;16.658;2023-05-19T06:10:20;10.33;;;2.90;;
26906;SDS011;14472;56.880;16.658;2023-05-19T06:12:46;8.37;;;2.80;;
26906;SDS011;14472;56.880;16.658;2023-05-19T06:15:12;10.57;;;2.87;;
26906;SDS011;14472;56.880;16.658;2023-05-19T06:17:37;10.10;;;3.10;;
26906;SDS011;14472;56.880;16.658;2023-05-19T06:20:03;10.27;;;2.53;;
26906;SDS011;14472;56.880;16.658;2023-05-19T06:22:30;8.50;;;2.63;;
26906;SDS011;14472;56.880;16.658;2023-05-19T06:24:56;8.33;;;2.37;;
26906;SDS011;14472;56.880;16.658;2023-05-19T06:27:22;9.43;;;2.53;;
26906;SDS011;14472;56.880;16.658;2023-05-19T06:29:48;8.03;;;2.50;;
26906;SDS011;14472;56.880;16.658;2023-05-19T06:32:13;12.30;;;2.80;;
26906;SDS011;14472;56.880;16.658;2023-05-19T06:34:39;9.67;;;2.67;;
26906;SDS011;14472;56.880;16.658;2023-05-19T06:37:05;9.57;;;2.97;;
26906;SDS011;14472;56.880;16.658;2023-05-19T06:39:31;10.70;;;2.90;;
26906;SDS011;14472;56.880;16.658;2023-05-19T06:41:57;9.70;;;2.70;;
26906;SDS011;14472;56.880;16.658;2023-05-19T06:44:23;8.93;;;3.23;;
26906;SDS011;14472;56.880;16.658;2023-05-19T06:46:49;8.27;;;2.80;;
26906;SDS011;14472;56.880;16.658;2023-05-19T06:49:14;9.40;;;2.87;;
26906;SDS011;14472;56.880;16.658;2023-05-19T06:51:40;8.03;;;2.67;;
26906;SDS011;14472;56.880;16.658;2023-05-19T06:54:06;8.00;;;2.47;;
26906;SDS011;14472;56.880;16.658;2023-05-19T06:56:34;10.60;;;2.70;;
26906;SDS011;14472;56.880;16.658;2023-05-19T06:59:00;7.20;;;2.80;;
26906;SDS011;14472;56.880;16.658;2023-05-19T07:01:26;8.13;;;2.60;;
26906;SDS011;14472;56.880;16.658;2023-05-19T07:03:52;7.37;;;2.50;;
26906;SDS011;14472;56.880;16.658;2023-05-19T07:06:18;11.93;;;2.90;;
26906;SDS011;14472;56.880;16.658;2023-05-19T07:08:43;11.00;;;2.70;;
26906;SDS011;14472;56.880;16.658;2023-05-19T07:11:09;8.87;;;2.57;;
26906;SDS011;14472;56.880;16.658;2023-05-19T07:13:36;6.53;;;2.50;;
26906;SDS011;14472;56.880;16.658;2023-05-19T07:16:02;7.37;;;2.80;;
26906;SDS011;14472;56.880;16.658;2023-05-19T07:18:27;11.40;;;3.27;;
26906;SDS011;14472;56.880;16.658;2023-05-19T07:20:56;11.03;;;2.40;;
26906;SDS011;14472;56.880;16.658;2023-05-19T07:23:23;11.10;;;2.70;;
26906;SDS011;14472;56.880;16.658;2023-05-19T07:25:48;9.97;;;3.03;;
26906;SDS011;14472;56.880;16.658;2023-05-19T07:28:17;10.23;;;2.47;;
26906;SDS011;14472;56.880;16.658;2023-05-19T07:30:43;7.97;;;2.73;;
26906;SDS011;14472;56.880;16.658;2023-05-19T07:33:09;8.80;;;2.50;;
26906;SDS011;14472;56.880;16.658;2023-05-19T07:35:35;9.67;;;2.80;;
26906;SDS011;14472;56.880;16.658;2023-05-19T07:38:01;7.90;;;2.57;;
26906;SDS011;14472;56.880;16.658;2023-05-19T07:40:27;11.27;;;2.47;;
26906;SDS011;14472;56.880;16.658;2023-05-19T07:42:53;8.83;;;2.57;;
26906;SDS011;14472;56.880;16.658;2023-05-19T07:45:19;10.03;;;2.60;;
26906;SDS011;14472;56.880;16.658;2023-05-19T07:47:45;8.87;;;2.80;;
26906;SDS011;14472;56.880;16.658;2023-05-19T07:50:10;9.37;;;2.50;;
26906;SDS011;14472;56.880;16.658;2023-05-19T07:52:36;8.07;;;2.73;;
26906;SDS011;14472;56.880;16.658;2023-05-19T07:55:02;10.70;;;3.77;;
26906;SDS011;14472;56.880;16.658;2023-05-19T07:57:28;10.97;;;2.77;;
26906;SDS011;14472;56.880;16.658;2023-05-19T07:59:53;10.47;;;2.77;;
26906;SDS011;14472;56.880;16.658;2023-05-19T08:02:19;9.47;;;3.00;;
26906;SDS011;14472;56.880;16.658;2023-05-19T08:04:45;10.67;;;2.67;;
26906;SDS011;14472;56.880;16.658;2023-05-19T08:07:12;10.03;;;2.80;;
26906;SDS011;14472;56.880;16.658;2023-05-19T08:09:38;6.97;;;2.60;;
26906;SDS011;14472;56.880;16.658;2023-05-19T08:12:04;7.73;;;2.53;;
26906;SDS011;14472;56.880;16.658;2023-05-19T08:14:30;11.63;;;2.90;;
26906;SDS011;14472;56.880;16.658;2023-05-19T08:16:57;7.80;;;2.70;;
26906;SDS011;14472;56.880;16.658;2023-05-19T08:19:26;11.60;;;2.60;;
26906;SDS011;14472;56.880;16.658;2023-05-19T08:21:52;6.13;;;2.30;;
26906;SDS011;14472;56.880;16.658;2023-05-19T08:24:17;10.83;;;2.67;;
26906;SDS011;14472;56.880;16.658;2023-05-19T08:26:43;9.17;;;2.43;;
26906;SDS011;14472;56.880;16.658;2023-05-19T08:29:09;9.67;;;2.23;;
26906;SDS011;14472;56.880;16.658;2023-05-19T08:31:35;11.20;;;2.70;;
26906;SDS011;14472;56.880;16.658;2023-05-19T08:34:01;9.47;;;2.80;;
26906;SDS011;14472;56.880;16.658;2023-05-19T08:36:27;9.37;;;2.90;;
26906;SDS011;14472;56.880;16.658;2023-05-19T08:38:54;7.73;;;2.50;;
26906;SDS011;14472;56.880;16.658;2023-05-19T08:41:20;6.27;;;2.07;;
26906;SDS011;14472;56.880;16.658;2023-05-19T08:43:47;5.27;;;2.10;;
26906;SDS011;14472;56.880;16.658;2023-05-19T08:46:13;11.77;;;2.53;;
26906;SDS011;14472;56.880;16.658;2023-05-19T08:48:41;6.83;;;2.30;;
26906;SDS011;14472;56.880;16.658;2023-05-19T08:52:13;6.07;;;1.90;;
26906;SDS011;14472;56.880;16.658;2023-05-19T08:54:10;11.00;;;2.50;;
26906;SDS011;14472;56.880;16.658;2023-05-19T08:56:42;6.57;;;1.77;;
26906;SDS011;14472;56.880;16.658;2023-05-19T08:59:09;5.72;;;2.10;;
26906;SDS011;14472;56.880;16.658;2023-05-19T09:01:35;8.48;;;2.35;;
26906;SDS011;14472;56.880;16.658;2023-05-19T09:04:02;9.73;;;2.50;;
26906;SDS011;14472;56.880;16.658;2023-05-19T09:06:28;6.63;;;1.90;;
26906;SDS011;14472;56.880;16.658;2023-05-19T09:08:56;11.05;;;2.90;;
26906;SDS011;14472;56.880;16.658;2023-05-19T09:11:22;5.30;;;2.30;;
26906;SDS011;14472;56.880;16.658;2023-05-19T09:13:48;6.85;;;2.05;;
26906;SDS011;14472;56.880;16.658;2023-05-19T09:16:14;6.30;;;2.30;;
26906;SDS011;14472;56.880;16.658;2023-05-19T09:18:52;5.37;;;1.90;;
26906;SDS011;14472;56.880;16.658;2023-05-19T09:21:25;7.13;;;2.10;;
26906;SDS011;14472;56.880;16.658;2023-05-19T09:24:02;6.45;;;1.80;;
26906;SDS011;14472;56.880;16.658;2023-05-19T09:26:38;6.25;;;2.10;;
26906;SDS011;14472;56.880;16.658;2023-05-19T09:31:38;6.22;;;1.77;;
26906;SDS011;14472;56.880;16.658;2023-05-19T09:34:10;4.63;;;1.75;;
26906;SDS011;14472;56.880;16.658;2023-05-19T09:36:38;9.27;;;2.42;;
26906;SDS011;14472;56.880;16.658;2023-05-19T09:39:12;5.22;;;1.80;;
26906;SDS011;14472;56.880;16.658;2023-05-19T09:41:38;6.30;;;2.20;;
26906;SDS011;14472;56.880;16.658;2023-05-19T09:44:04;6.88;;;1.88;;
26906;SDS011;14472;56.880;16.658;2023-05-19T09:46:31;6.55;;;1.45;;
26906;SDS011;14472;56.880;16.658;2023-05-19T09:48:59;5.22;;;1.60;;
26906;SDS011;14472;56.880;16.658;2023-05-19T09:51:35;5.00;;;1.70;;
26906;SDS011;14472;56.880;16.658;2023-05-19T09:54:03;5.40;;;1.77;;
26906;SDS011;14472;56.880;16.658;2023-05-19T09:56:35;5.25;;;1.70;;
26906;SDS011;14472;56.880;16.658;2023-05-19T09:59:03;3.17;;;1.50;;
26906;SDS011;14472;56.880;16.658;2023-05-19T10:01:31;3.97;;;1.77;;
26906;SDS011;14472;56.880;16.658;2023-05-19T10:04:01;5.57;;;1.60;;
26906;SDS011;14472;56.880;16.658;2023-05-19T10:06:28;4.00;;;1.70;;
26906;SDS011;14472;56.880;16.658;2023-05-19T10:08:54;6.65;;;1.95;;
26906;SDS011;14472;56.880;16.658;2023-05-19T10:11:21;6.07;;;1.95;;
26906;SDS011;14472;56.880;16.658;2023-05-19T10:13:49;4.15;;;1.52;;
26906;SDS011;14472;56.880;16.658;2023-05-19T10:16:16;6.07;;;1.70;;
26906;SDS011;14472;56.880;16.658;2023-05-19T10:18:45;4.38;;;1.70;;
26906;SDS011;14472;56.880;16.658;2023-05-19T10:21:13;5.88;;;1.83;;
26906;SDS011;14472;56.880;16.658;2023-05-19T10:23:39;5.28;;;1.73;;
26906;SDS011;14472;56.880;16.658;2023-05-19T10:26:05;6.10;;;1.70;;
26906;SDS011;14472;56.880;16.658;2023-05-19T10:28:39;6.35;;;1.58;;
26906;SDS011;14472;56.880;16.658;2023-05-19T10:31:08;4.03;;;1.60;;
26906;SDS011;14472;56.880;16.658;2023-05-19T10:36:28;6.13;;;1.60;;
26906;SDS011;14472;56.880;16.658;2023-05-19T10:38:59;7.28;;;2.25;;
26906;SDS011;14472;56.880;16.658;2023-05-19T10:47:11;4.50;;;1.80;;
26906;SDS011;14472;56.880;16.658;2023-05-19T10:49:36;5.03;;;1.90;;
26906;SDS011;14472;56.880;16.658;2023-05-19T10:52:03;7.60;;;2.00;;
26906;SDS011;14472;56.880;16.658;2023-05-19T10:54:47;6.75;;;1.80;;
26906;SDS011;14472;56.880;16.658;2023-05-19T10:57:16;3.80;;;1.50;;
26906;SDS011;14472;56.880;16.658;2023-05-19T10:59:44;3.83;;;1.70;;
26906;SDS011;14472;56.880;16.658;2023-05-19T11:02:53;6.50;;;1.88;;
26906;SDS011;14472;56.880;16.658;2023-05-19T11:05:07;3.25;;;1.40;;
26906;SDS011;14472;56.880;16.658;2023-05-19T11:07:36;4.63;;;1.63;;
26906;SDS011;14472;56.880;16.658;2023-05-19T11:10:05;4.95;;;1.52;;
26906;SDS011;14472;56.880;16.658;2023-05-19T11:12:38;7.22;;;1.70;;
26906;SDS011;14472;56.880;16.658;2023-05-19T11:15:08;4.43;;;1.23;;
26906;SDS011;14472;56.880;16.658;2023-05-19T11:17:36;5.20;;;1.50;;
26906;SDS011;14472;56.880;16.658;2023-05-19T11:20:03;4.97;;;1.48;;
26906;SDS011;14472;56.880;16.658;2023-05-19T11:22:35;5.15;;;1.48;;
26906;SDS011;14472;56.880;16.658;2023-05-19T11:25:01;3.95;;;1.35;;
26906;SDS011;14472;56.880;16.658;2023-05-19T11:27:32;3.45;;;1.42;;
26906;SDS011;14472;56.880;16.658;2023-05-19T11:32:32;5.15;;;1.48;;
26906;SDS011;14472;56.880;16.658;2023-05-19T11:35:00;4.45;;;1.20;;
26906;SDS011;14472;56.880;16.658;2023-05-19T11:37:26;4.57;;;1.35;;
26906;SDS011;14472;56.880;16.658;2023-05-19T11:39:56;8.07;;;1.98;;
26906;SDS011;14472;56.880;16.658;2023-05-19T11:42:25;5.28;;;1.58;;
26906;SDS011;14472;56.880;16.658;2023-05-19T11:44:53;6.60;;;1.58;;
26906;SDS011;14472;56.880;16.658;2023-05-19T11:47:19;5.25;;;1.42;;
26906;SDS011;14472;56.880;16.658;2023-05-19T11:49:49;4.45;;;1.30;;
26906;SDS011;14472;56.880;16.658;2023-05-19T11:52:25;2.67;;;1.30;;
26906;SDS011;14472;56.880;16.658;2023-05-19T11:54:51;6.43;;;1.40;;
26906;SDS011;14472;56.880;16.658;2023-05-19T11:57:17;3.67;;;1.35;;
26906;SDS011;14472;56.880;16.658;2023-05-19T11:59:43;4.60;;;1.50;;
26906;SDS011;14472;56.880;16.658;2023-05-19T12:04:51;4.75;;;1.58;;
26906;SDS011;14472;56.880;16.658;2023-05-19T12:07:18;5.70;;;1.65;;
26906;SDS011;14472;56.880;16.658;2023-05-19T12:09:47;4.70;;;1.40;;
26906;SDS011;14472;56.880;16.658;2023-05-19T12:12:17;6.22;;;1.58;;
26906;SDS011;14472;56.880;16.658;2023-05-19T12:14:48;2.78;;;1.20;;
26906;SDS011;14472;56.880;16.658;2023-05-19T12:17:15;3.55;;;1.40;;
26906;SDS011;14472;56.880;16.658;2023-05-19T12:19:44;3.90;;;1.48;;
26906;SDS011;14472;56.880;16.658;2023-05-19T12:22:14;3.90;;;1.30;;
26906;SDS011;14472;56.880;16.658;2023-05-19T12:24:43;3.50;;;1.27;;
26906;SDS011;14472;56.880;16.658;2023-05-19T12:27:10;6.47;;;1.30;;
26906;SDS011;14472;56.880;16.658;2023-05-19T12:29:53;3.30;;;1.02;;
26906;SDS011;14472;56.880;16.658;2023-05-19T12:32:24;4.22;;;0.98;;
26906;SDS011;14472;56.880;16.658;2023-05-19T12:34:52;4.80;;;1.17;;
26906;SDS011;14472;56.880;16.658;2023-05-19T12:37:20;5.53;;;1.23;;
26906;SDS011;14472;56.880;16.658;2023-05-19T12:39:49;4.18;;;1.20;;
26906;SDS011;14472;56.880;16.658;2023-05-19T12:42:18;2.65;;;1.20;;
26906;SDS011;14472;56.880;16.658;2023-05-19T12:44:45;3.85;;;1.33;;
26906;SDS011;14472;56.880;16.658;2023-05-19T12:47:14;3.67;;;1.00;;
26906;SDS011;14472;56.880;16.658;2023-05-19T12:49:59;2.78;;;1.10;;
26906;SDS011;14472;56.880;16.658;2023-05-19T12:52:28;3.65;;;1.25;;
26906;SDS011;14472;56.880;16.658;2023-05-19T12:54:57;2.28;;;1.05;;
26906;SDS011;14472;56.880;16.658;2023-05-19T12:57:34;3.03;;;1.40;;
26906;SDS011;14472;56.880;16.658;2023-05-19T13:00:02;2.20;;;1.00;;
26906;SDS011;14472;56.880;16.658;2023-05-19T13:02:53;4.03;;;1.58;;
26906;SDS011;14472;56.880;16.658;2023-05-19T13:05:30;4.95;;;1.08;;
26906;SDS011;14472;56.880;16.658;2023-05-19T13:08:00;2.22;;;1.10;;
26906;SDS011;14472;56.880;16.658;2023-05-19T13:10:33;2.58;;;1.13;;
26906;SDS011;14472;56.880;16.658;2023-05-19T13:13:00;3.63;;;1.23;;
26906;SDS011;14472;56.880;16.658;2023-05-19T13:15:31;3.30;;;1.25;;
26906;SDS011;14472;56.880;16.658;2023-05-19T13:18:02;6.13;;;1.08;;
26906;SDS011;14472;56.880;16.658;2023-05-19T13:20:30;4.32;;;1.10;;
26906;SDS011;14472;56.880;16.658;2023-05-19T13:22:57;3.50;;;1.00;;
26906;SDS011;14472;56.880;16.658;2023-05-19T13:25:23;2.60;;;1.10;;
26906;SDS011;14472;56.880;16.658;2023-05-19T13:27:49;1.95;;;1.08;;
26906;SDS011;14472;56.880;16.658;2023-05-19T13:30:16;2.60;;;1.13;;
26906;SDS011;14472;56.880;16.658;2023-05-19T13:32:42;3.08;;;1.40;;
26906;SDS011;14472;56.880;16.658;2023-05-19T13:35:08;5.03;;;1.30;;
26906;SDS011;14472;56.880;16.658;2023-05-19T13:37:34;3.40;;;1.10;;
26906;SDS011;14472;56.880;16.658;2023-05-19T13:40:00;3.45;;;1.17;;
26906;SDS011;14472;56.880;16.658;2023-05-19T13:42:26;3.42;;;1.10;;
26906;SDS011;14472;56.880;16.658;2023-05-19T13:44:55;4.38;;;1.13;;
26906;SDS011;14472;56.880;16.658;2023-05-19T13:47:24;5.40;;;1.52;;
26906;SDS011;14472;56.880;16.658;2023-05-19T13:49:50;2.83;;;1.20;;
26906;SDS011;14472;56.880;16.658;2023-05-19T13:52:16;4.05;;;1.30;;
26906;SDS011;14472;56.880;16.658;2023-05-19T13:54:43;2.95;;;1.00;;
26906;SDS011;14472;56.880;16.658;2023-05-19T13:57:09;3.45;;;1.10;;
26906;SDS011;14472;56.880;16.658;2023-05-19T13:59:35;4.05;;;1.20;;
26906;SDS011;14472;56.880;16.658;2023-05-19T14:02:01;4.57;;;1.20;;
26906;SDS011;14472;56.880;16.658;2023-05-19T14:04:28;2.90;;;1.02;;
26906;SDS011;14472;56.880;16.658;2023-05-19T14:06:53;3.70;;;1.20;;
26906;SDS011;14472;56.880;16.658;2023-05-19T14:09:19;2.72;;;1.38;;
26906;SDS011;14472;56.880;16.658;2023-05-19T14:11:45;5.00;;;1.17;;
26906;SDS011;14472;56.880;16.658;2023-05-19T14:14:11;3.05;;;1.27;;
26906;SDS011;14472;56.880;16.658;2023-05-19T14:16:38;2.15;;;1.10;;
26906;SDS011;14472;56.880;16.658;2023-05-19T14:19:04;2.13;;;1.02;;
26906;SDS011;14472;56.880;16.658;2023-05-19T14:21:30;2.40;;;1.00;;
26906;SDS011;14472;56.880;16.658;2023-05-19T14:23:56;3.92;;;1.15;;
26906;SDS011;14472;56.880;16.658;2023-05-19T14:26:22;3.22;;;1.30;;
26906;SDS011;14472;56.880;16.658;2023-05-19T14:28:48;3.03;;;1.10;;
26906;SDS011;14472;56.880;16.658;2023-05-19T14:31:14;3.40;;;1.05;;
26906;SDS011;14472;56.880;16.658;2023-05-19T14:33:40;2.85;;;1.00;;
26906;SDS011;14472;56.880;16.658;2023-05-19T14:36:06;3.28;;;1.15;;
26906;SDS011;14472;56.880;16.658;2023-05-19T14:38:33;2.88;;;1.30;;
26906;SDS011;14472;56.880;16.658;2023-05-19T14:40:58;3.40;;;1.17;;
26906;SDS011;14472;56.880;16.658;2023-05-19T14:43:24;3.72;;;1.25;;
26906;SDS011;14472;56.880;16.658;2023-05-19T14:45:53;2.80;;;1.10;;
26906;SDS011;14472;56.880;16.658;2023-05-19T14:48:19;2.03;;;0.88;;
26906;SDS011;14472;56.880;16.658;2023-05-19T14:50:45;3.05;;;1.08;;
26906;SDS011;14472;56.880;16.658;2023-05-19T14:53:12;2.78;;;1.35;;
26906;SDS011;14472;56.880;16.658;2023-05-19T14:55:38;3.42;;;1.30;;
26906;SDS011;14472;56.880;16.658;2023-05-19T14:58:03;3.40;;;1.00;;
26906;SDS011;14472;56.880;16.658;2023-05-19T15:00:29;3.35;;;1.30;;
26906;SDS011;14472;56.880;16.658;2023-05-19T15:02:55;3.80;;;1.08;;
26906;SDS011;14472;56.880;16.658;2023-05-19T15:05:21;5.03;;;1.30;;
26906;SDS011;14472;56.880;16.658;2023-05-19T15:07:48;3.72;;;1.25;;
26906;SDS011;14472;56.880;16.658;2023-05-19T15:10:14;4.93;;;1.38;;